sensor_id;sensor_type;location;lat;lon;timestamp;temperature;humidity
46319;DHT22;32042;50.916;2.926;2023-01-20T00:01:24;0.50;99.90
46319;DHT22;32042;50.916;2.926;2023-01-20T00:03:51;0.50;99.90
46319;DHT22;32042;50.916;2.926;2023-01-20T00:06:18;0.50;99.90
46319;DHT22;32042;50.916;2.926;2023-01-20T00:08:43;0.60;99.90
46319;DHT22;32042;50.916;2.926;2023-01-20T00:11:11;0.60;99.90
46319;DHT22;32042;50.916;2.926;2023-01-20T00:13:37;0.60;99.90
46319;DHT22;32042;50.916;2.926;2023-01-20T00:16:06;0.60;99.90
46319;DHT22;32042;50.916;2.926;2023-01-20T00:18:32;0.70;99.90
46319;DHT22;32042;50.916;2.926;2023-01-20T00:21:08;0.70;99.90
46319;DHT22;32042;50.916;2.926;2023-01-20T00:23:34;0.70;99.90
46319;DHT22;32042;50.916;2.926;2023-01-20T00:26:14;0.80;99.90
46319;DHT22;32042;50.916;2.926;2023-01-20T00:28:41;0.80;99.90
46319;DHT22;32042;50.916;2.926;2023-01-20T00:31:12;0.80;99.90
46319;DHT22;32042;50.916;2.926;2023-01-20T00:33:39;0.90;99.90
46319;DHT22;32042;50.916;2.926;2023-01-20T00:36:05;0.90;99.90
46319;DHT22;32042;50.916;2.926;2023-01-20T00:38:30;0.90;99.90
46319;DHT22;32042;50.916;2.926;2023-01-20T00:40:56;1.00;99.90
46319;DHT22;32042;50.916;2.926;2023-01-20T00:43:22;1.10;99.90
46319;DHT22;32042;50.916;2.926;2023-01-20T00:45:47;1.20;99.90
46319;DHT22;32042;50.916;2.926;2023-01-20T00:48:13;1.20;99.90
46319;DHT22;32042;50.916;2.926;2023-01-20T00:50:39;1.30;99.90
46319;DHT22;32042;50.916;2.926;2023-01-20T00:53:04;1.30;99.90
46319;DHT22;32042;50.916;2.926;2023-01-20T00:55:30;1.30;99.90
46319;DHT22;32042;50.916;2.926;2023-01-20T00:57:56;1.30;99.90
46319;DHT22;32042;50.916;2.926;2023-01-20T01:00:21;1.30;99.90
46319;DHT22;32042;50.916;2.926;2023-01-20T01:02:47;1.40;99.90
46319;DHT22;32042;50.916;2.926;2023-01-20T01:05:13;1.40;99.90
46319;DHT22;32042;50.916;2.926;2023-01-20T01:07:38;1.40;99.90
46319;DHT22;32042;50.916;2.926;2023-01-20T01:10:04;1.40;99.90
46319;DHT22;32042;50.916;2.926;2023-01-20T01:12:30;1.40;99.90
46319;DHT22;32042;50.916;2.926;2023-01-20T01:14:56;1.40;99.90
46319;DHT22;32042;50.916;2.926;2023-01-20T01:17:22;1.40;99.90
46319;DHT22;32042;50.916;2.926;2023-01-20T01:19:50;1.40;99.90
46319;DHT22;32042;50.916;2.926;2023-01-20T01:22:16;1.40;99.90
46319;DHT22;32042;50.916;2.926;2023-01-20T01:24:43;1.40;99.90
46319;DHT22;32042;50.916;2.926;2023-01-20T01:27:09;1.40;99.90
46319;DHT22;32042;50.916;2.926;2023-01-20T01:29:35;1.40;99.90
46319;DHT22;32042;50.916;2.926;2023-01-20T01:32:01;1.40;99.90
46319;DHT22;32042;50.916;2.926;2023-01-20T01:34:26;1.40;99.90
46319;DHT22;32042;50.916;2.926;2023-01-20T01:36:52;1.30;99.90
46319;DHT22;32042;50.916;2.926;2023-01-20T01:39:18;1.30;99.90
46319;DHT22;32042;50.916;2.926;2023-01-20T01:41:43;1.30;99.90
46319;DHT22;32042;50.916;2.926;2023-01-20T01:44:11;1.30;99.90
46319;DHT22;32042;50.916;2.926;2023-01-20T01:46:38;1.30;99.90
46319;DHT22;32042;50.916;2.926;2023-01-20T01:49:18;1.20;99.90
46319;DHT22;32042;50.916;2.926;2023-01-20T01:52:06;1.20;99.90
46319;DHT22;32042;50.916;2.926;2023-01-20T01:54:36;1.20;99.90
46319;DHT22;32042;50.916;2.926;2023-01-20T01:57:05;1.10;99.90
46319;DHT22;32042;50.916;2.926;2023-01-20T01:59:32;1.10;99.90
46319;DHT22;32042;50.916;2.926;2023-01-20T02:01:57;1.10;99.90
46319;DHT22;32042;50.916;2.926;2023-01-20T02:04:25;1.10;99.90
46319;DHT22;32042;50.916;2.926;2023-01-20T02:07:11;1.10;99.90
46319;DHT22;32042;50.916;2.926;2023-01-20T02:09:40;1.10;99.90
46319;DHT22;32042;50.916;2.926;2023-01-20T02:12:09;1.00;99.90
46319;DHT22;32042;50.916;2.926;2023-01-20T02:14:40;1.00;99.90
46319;DHT22;32042;50.916;2.926;2023-01-20T02:17:32;1.00;99.90
46319;DHT22;32042;50.916;2.926;2023-01-20T02:23:07;1.00;99.90
46319;DHT22;32042;50.916;2.926;2023-01-20T02:32:06;0.90;99.90
46319;DHT22;32042;50.916;2.926;2023-01-20T02:37:17;0.90;99.90
46319;DHT22;32042;50.916;2.926;2023-01-20T02:40:30;0.80;99.90
46319;DHT22;32042;50.916;2.926;2023-01-20T02:43:06;0.90;99.90
46319;DHT22;32042;50.916;2.926;2023-01-20T02:45:41;0.90;99.90
46319;DHT22;32042;50.916;2.926;2023-01-20T02:51:26;0.90;99.90
46319;DHT22;32042;50.916;2.926;2023-01-20T02:54:03;0.90;99.90
46319;DHT22;32042;50.916;2.926;2023-01-20T02:56:30;1.00;99.90
46319;DHT22;32042;50.916;2.926;2023-01-20T02:59:09;1.00;99.90
46319;DHT22;32042;50.916;2.926;2023-01-20T03:01:42;1.00;99.90
46319;DHT22;32042;50.916;2.926;2023-01-20T03:04:12;1.00;99.90
46319;DHT22;32042;50.916;2.926;2023-01-20T03:06:45;1.10;99.90
46319;DHT22;32042;50.916;2.926;2023-01-20T03:09:15;1.10;99.90
46319;DHT22;32042;50.916;2.926;2023-01-20T03:11:46;1.10;99.90
46319;DHT22;32042;50.916;2.926;2023-01-20T03:14:13;1.10;99.90
46319;DHT22;32042;50.916;2.926;2023-01-20T03:16:40;1.10;99.90
46319;DHT22;32042;50.916;2.926;2023-01-20T03:19:06;1.20;99.90
46319;DHT22;32042;50.916;2.926;2023-01-20T03:21:33;1.10;99.90
46319;DHT22;32042;50.916;2.926;2023-01-20T03:24:00;1.10;99.90
46319;DHT22;32042;50.916;2.926;2023-01-20T03:26:26;1.20;99.90
46319;DHT22;32042;50.916;2.926;2023-01-20T03:28:52;1.20;99.90
46319;DHT22;32042;50.916;2.926;2023-01-20T03:31:27;1.20;99.90
46319;DHT22;32042;50.916;2.926;2023-01-20T03:33:57;1.20;99.90
46319;DHT22;32042;50.916;2.926;2023-01-20T03:36:25;1.20;99.90
46319;DHT22;32042;50.916;2.926;2023-01-20T03:38:52;1.30;99.90
46319;DHT22;32042;50.916;2.926;2023-01-20T03:43:56;1.30;99.90
46319;DHT22;32042;50.916;2.926;2023-01-20T03:46:31;1.30;99.90
46319;DHT22;32042;50.916;2.926;2023-01-20T03:49:25;1.20;99.90
46319;DHT22;32042;50.916;2.926;2023-01-20T03:54:53;1.20;99.90
46319;DHT22;32042;50.916;2.926;2023-01-20T03:57:24;1.20;99.90
46319;DHT22;32042;50.916;2.926;2023-01-20T03:59:51;1.20;99.90
46319;DHT22;32042;50.916;2.926;2023-01-20T04:02:18;1.20;99.90
46319;DHT22;32042;50.916;2.926;2023-01-20T04:04:46;1.20;99.90
46319;DHT22;32042;50.916;2.926;2023-01-20T04:07:19;1.30;99.90
46319;DHT22;32042;50.916;2.926;2023-01-20T04:09:50;1.30;99.90
46319;DHT22;32042;50.916;2.926;2023-01-20T04:12:17;1.30;99.90
46319;DHT22;32042;50.916;2.926;2023-01-20T04:14:43;1.30;99.90
46319;DHT22;32042;50.916;2.926;2023-01-20T04:17:09;1.40;99.90
46319;DHT22;32042;50.916;2.926;2023-01-20T04:19:35;1.40;99.90
46319;DHT22;32042;50.916;2.926;2023-01-20T04:22:13;1.40;99.90
46319;DHT22;32042;50.916;2.926;2023-01-20T04:24:53;1.40;99.90
46319;DHT22;32042;50.916;2.926;2023-01-20T04:27:21;1.50;99.90
46319;DHT22;32042;50.916;2.926;2023-01-20T04:29:46;1.40;99.90
46319;DHT22;32042;50.916;2.926;2023-01-20T04:32:12;1.50;99.90
46319;DHT22;32042;50.916;2.926;2023-01-20T04:34:38;1.50;99.90
46319;DHT22;32042;50.916;2.926;2023-01-20T04:37:04;1.50;99.90
46319;DHT22;32042;50.916;2.926;2023-01-20T04:39:29;1.50;99.90
46319;DHT22;32042;50.916;2.926;2023-01-20T04:41:55;1.50;99.90
46319;DHT22;32042;50.916;2.926;2023-01-20T04:44:21;1.50;99.90
46319;DHT22;32042;50.916;2.926;2023-01-20T04:46:46;1.60;99.90
46319;DHT22;32042;50.916;2.926;2023-01-20T04:49:13;1.60;99.90
46319;DHT22;32042;50.916;2.926;2023-01-20T04:51:38;1.60;99.90
46319;DHT22;32042;50.916;2.926;2023-01-20T04:54:05;1.70;99.90
46319;DHT22;32042;50.916;2.926;2023-01-20T04:56:31;1.90;99.90
46319;DHT22;32042;50.916;2.926;2023-01-20T04:58:57;2.00;99.90
46319;DHT22;32042;50.916;2.926;2023-01-20T05:01:23;2.00;99.90
46319;DHT22;32042;50.916;2.926;2023-01-20T05:03:49;2.10;99.90
46319;DHT22;32042;50.916;2.926;2023-01-20T05:06:15;2.20;99.90
46319;DHT22;32042;50.916;2.926;2023-01-20T05:08:40;2.30;99.90
46319;DHT22;32042;50.916;2.926;2023-01-20T05:11:06;2.30;99.90
46319;DHT22;32042;50.916;2.926;2023-01-20T05:13:32;2.30;99.90
46319;DHT22;32042;50.916;2.926;2023-01-20T05:16:03;2.30;99.90
46319;DHT22;32042;50.916;2.926;2023-01-20T05:18:29;2.30;99.90
46319;DHT22;32042;50.916;2.926;2023-01-20T05:20:55;2.40;99.90
46319;DHT22;32042;50.916;2.926;2023-01-20T05:23:20;2.40;99.90
46319;DHT22;32042;50.916;2.926;2023-01-20T05:25:50;2.40;99.90
46319;DHT22;32042;50.916;2.926;2023-01-20T05:28:16;2.40;99.90
46319;DHT22;32042;50.916;2.926;2023-01-20T05:30:41;2.30;99.90
46319;DHT22;32042;50.916;2.926;2023-01-20T05:33:07;2.30;99.90
46319;DHT22;32042;50.916;2.926;2023-01-20T05:35:33;2.30;99.90
46319;DHT22;32042;50.916;2.926;2023-01-20T05:37:58;2.30;99.90
46319;DHT22;32042;50.916;2.926;2023-01-20T05:40:24;2.40;99.90
46319;DHT22;32042;50.916;2.926;2023-01-20T05:42:50;2.50;99.90
46319;DHT22;32042;50.916;2.926;2023-01-20T05:45:15;2.40;99.90
46319;DHT22;32042;50.916;2.926;2023-01-20T05:47:41;2.50;99.90
46319;DHT22;32042;50.916;2.926;2023-01-20T05:50:07;2.40;99.90
46319;DHT22;32042;50.916;2.926;2023-01-20T05:52:33;2.50;99.90
46319;DHT22;32042;50.916;2.926;2023-01-20T05:54:59;2.50;99.90
46319;DHT22;32042;50.916;2.926;2023-01-20T05:57:24;2.50;99.90
46319;DHT22;32042;50.916;2.926;2023-01-20T05:59:50;2.50;99.90
46319;DHT22;32042;50.916;2.926;2023-01-20T06:02:18;2.50;99.90
46319;DHT22;32042;50.916;2.926;2023-01-20T06:04:47;2.50;99.90
46319;DHT22;32042;50.916;2.926;2023-01-20T06:07:13;2.50;99.90
46319;DHT22;32042;50.916;2.926;2023-01-20T06:09:40;2.60;99.90
46319;DHT22;32042;50.916;2.926;2023-01-20T06:12:06;2.60;99.90
46319;DHT22;32042;50.916;2.926;2023-01-20T06:14:32;2.60;99.90
46319;DHT22;32042;50.916;2.926;2023-01-20T06:16:57;2.60;99.90
46319;DHT22;32042;50.916;2.926;2023-01-20T06:19:24;2.60;99.90
46319;DHT22;32042;50.916;2.926;2023-01-20T06:21:49;2.60;99.90
46319;DHT22;32042;50.916;2.926;2023-01-20T06:24:15;2.60;99.90
46319;DHT22;32042;50.916;2.926;2023-01-20T06:26:41;2.70;99.90
46319;DHT22;32042;50.916;2.926;2023-01-20T06:29:06;2.70;99.90
46319;DHT22;32042;50.916;2.926;2023-01-20T06:31:32;2.70;99.90
46319;DHT22;32042;50.916;2.926;2023-01-20T06:33:58;2.70;99.90
46319;DHT22;32042;50.916;2.926;2023-01-20T06:36:23;2.70;99.90
46319;DHT22;32042;50.916;2.926;2023-01-20T06:38:49;2.70;99.90
46319;DHT22;32042;50.916;2.926;2023-01-20T06:41:16;2.70;99.90
46319;DHT22;32042;50.916;2.926;2023-01-20T06:43:43;2.70;99.90
46319;DHT22;32042;50.916;2.926;2023-01-20T06:46:13;2.70;99.90
46319;DHT22;32042;50.916;2.926;2023-01-20T06:48:40;2.70;99.90
46319;DHT22;32042;50.916;2.926;2023-01-20T06:51:09;2.70;99.90
46319;DHT22;32042;50.916;2.926;2023-01-20T06:53:36;2.70;99.90
46319;DHT22;32042;50.916;2.926;2023-01-20T06:56:02;2.60;99.90
46319;DHT22;32042;50.916;2.926;2023-01-20T06:58:29;2.70;99.90
46319;DHT22;32042;50.916;2.926;2023-01-20T07:00:57;2.70;99.90
46319;DHT22;32042;50.916;2.926;2023-01-20T07:03:23;2.70;99.90
46319;DHT22;32042;50.916;2.926;2023-01-20T07:06:16;2.70;99.90
46319;DHT22;32042;50.916;2.926;2023-01-20T07:08:45;2.80;99.90
46319;DHT22;32042;50.916;2.926;2023-01-20T07:11:11;2.90;99.90
46319;DHT22;32042;50.916;2.926;2023-01-20T07:13:37;2.90;99.90
46319;DHT22;32042;50.916;2.926;2023-01-20T07:16:03;3.00;99.90
46319;DHT22;32042;50.916;2.926;2023-01-20T07:18:29;3.00;99.90
46319;DHT22;32042;50.916;2.926;2023-01-20T07:20:55;3.00;99.90
46319;DHT22;32042;50.916;2.926;2023-01-20T07:23:22;3.00;99.90
46319;DHT22;32042;50.916;2.926;2023-01-20T07:26:02;3.00;99.90
46319;DHT22;32042;50.916;2.926;2023-01-20T07:28:29;3.10;99.90
46319;DHT22;32042;50.916;2.926;2023-01-20T07:30:58;3.10;99.90
46319;DHT22;32042;50.916;2.926;2023-01-20T07:33:26;3.10;99.90
46319;DHT22;32042;50.916;2.926;2023-01-20T07:35:52;3.10;99.90
46319;DHT22;32042;50.916;2.926;2023-01-20T07:38:21;3.10;99.90
46319;DHT22;32042;50.916;2.926;2023-01-20T07:40:46;3.00;99.90
46319;DHT22;32042;50.916;2.926;2023-01-20T07:43:12;3.00;99.90
46319;DHT22;32042;50.916;2.926;2023-01-20T07:45:38;3.00;99.90
46319;DHT22;32042;50.916;2.926;2023-01-20T07:48:04;3.00;99.90
46319;DHT22;32042;50.916;2.926;2023-01-20T07:50:35;3.10;99.90
46319;DHT22;32042;50.916;2.926;2023-01-20T07:53:02;3.20;99.90
46319;DHT22;32042;50.916;2.926;2023-01-20T07:55:28;3.20;99.90
46319;DHT22;32042;50.916;2.926;2023-01-20T07:57:54;3.30;99.90
46319;DHT22;32042;50.916;2.926;2023-01-20T08:00:20;3.20;99.90
46319;DHT22;32042;50.916;2.926;2023-01-20T08:02:46;3.20;99.90
46319;DHT22;32042;50.916;2.926;2023-01-20T08:05:12;3.20;99.90
46319;DHT22;32042;50.916;2.926;2023-01-20T08:07:37;3.20;99.90
46319;DHT22;32042;50.916;2.926;2023-01-20T08:10:03;3.10;99.90
46319;DHT22;32042;50.916;2.926;2023-01-20T08:12:29;3.10;99.90
46319;DHT22;32042;50.916;2.926;2023-01-20T08:14:55;3.00;99.90
46319;DHT22;32042;50.916;2.926;2023-01-20T08:17:21;2.90;99.90
46319;DHT22;32042;50.916;2.926;2023-01-20T08:19:47;2.90;99.90
46319;DHT22;32042;50.916;2.926;2023-01-20T08:22:12;2.90;99.90
46319;DHT22;32042;50.916;2.926;2023-01-20T08:24:38;2.80;99.90
46319;DHT22;32042;50.916;2.926;2023-01-20T08:27:04;2.90;99.90
46319;DHT22;32042;50.916;2.926;2023-01-20T08:29:29;2.90;99.90
46319;DHT22;32042;50.916;2.926;2023-01-20T08:31:58;2.90;99.90
46319;DHT22;32042;50.916;2.926;2023-01-20T08:34:25;2.90;99.90
46319;DHT22;32042;50.916;2.926;2023-01-20T08:36:50;3.00;99.90
46319;DHT22;32042;50.916;2.926;2023-01-20T08:39:19;3.10;99.90
46319;DHT22;32042;50.916;2.926;2023-01-20T08:41:46;3.20;99.90
46319;DHT22;32042;50.916;2.926;2023-01-20T08:44:12;3.30;99.90
46319;DHT22;32042;50.916;2.926;2023-01-20T08:46:39;3.40;99.90
46319;DHT22;32042;50.916;2.926;2023-01-20T08:49:07;3.40;99.90
46319;DHT22;32042;50.916;2.926;2023-01-20T08:51:33;3.50;99.90
46319;DHT22;32042;50.916;2.926;2023-01-20T08:53:59;3.50;99.90
46319;DHT22;32042;50.916;2.926;2023-01-20T08:56:26;3.50;99.90
46319;DHT22;32042;50.916;2.926;2023-01-20T08:58:51;3.50;99.90
46319;DHT22;32042;50.916;2.926;2023-01-20T09:01:27;3.50;99.90
46319;DHT22;32042;50.916;2.926;2023-01-20T09:03:54;3.50;99.90
46319;DHT22;32042;50.916;2.926;2023-01-20T09:06:20;3.50;99.90
46319;DHT22;32042;50.916;2.926;2023-01-20T09:08:49;3.50;99.90
46319;DHT22;32042;50.916;2.926;2023-01-20T09:11:19;3.60;99.90
46319;DHT22;32042;50.916;2.926;2023-01-20T09:13:45;3.50;99.90
46319;DHT22;32042;50.916;2.926;2023-01-20T09:16:12;3.60;99.90
46319;DHT22;32042;50.916;2.926;2023-01-20T09:18:38;3.60;99.90
46319;DHT22;32042;50.916;2.926;2023-01-20T09:21:04;3.70;99.90
46319;DHT22;32042;50.916;2.926;2023-01-20T09:23:35;3.70;99.90
46319;DHT22;32042;50.916;2.926;2023-01-20T09:26:02;3.80;99.90
46319;DHT22;32042;50.916;2.926;2023-01-20T09:28:29;3.80;99.90
46319;DHT22;32042;50.916;2.926;2023-01-20T09:31:03;3.80;99.90
46319;DHT22;32042;50.916;2.926;2023-01-20T09:33:30;3.80;99.90
46319;DHT22;32042;50.916;2.926;2023-01-20T09:35:57;3.80;99.90
46319;DHT22;32042;50.916;2.926;2023-01-20T09:38:24;3.80;99.90
46319;DHT22;32042;50.916;2.926;2023-01-20T09:52:48;4.10;99.90
46319;DHT22;32042;50.916;2.926;2023-01-20T10:04:09;4.10;99.90
46319;DHT22;32042;50.916;2.926;2023-01-20T10:09:40;4.10;99.90
46319;DHT22;32042;50.916;2.926;2023-01-20T10:12:12;4.10;99.90
46319;DHT22;32042;50.916;2.926;2023-01-20T10:17:30;4.10;99.90
46319;DHT22;32042;50.916;2.926;2023-01-20T10:20:09;4.20;99.90
46319;DHT22;32042;50.916;2.926;2023-01-20T10:22:44;4.10;99.90
46319;DHT22;32042;50.916;2.926;2023-01-20T10:25:16;4.20;99.90
46319;DHT22;32042;50.916;2.926;2023-01-20T10:27:50;4.30;99.90
46319;DHT22;32042;50.916;2.926;2023-01-20T10:30:18;4.30;99.90
46319;DHT22;32042;50.916;2.926;2023-01-20T10:32:59;4.50;99.90
46319;DHT22;32042;50.916;2.926;2023-01-20T10:35:30;4.60;99.90
46319;DHT22;32042;50.916;2.926;2023-01-20T10:37:57;4.80;99.90
46319;DHT22;32042;50.916;2.926;2023-01-20T10:42:55;5.00;99.90
46319;DHT22;32042;50.916;2.926;2023-01-20T10:45:55;5.10;99.90
46319;DHT22;32042;50.916;2.926;2023-01-20T10:51:45;5.20;99.90
46319;DHT22;32042;50.916;2.926;2023-01-20T10:54:45;5.20;99.90
46319;DHT22;32042;50.916;2.926;2023-01-20T10:57:14;5.30;99.90
46319;DHT22;32042;50.916;2.926;2023-01-20T11:04:44;5.70;99.90
46319;DHT22;32042;50.916;2.926;2023-01-20T11:07:16;5.70;99.90
46319;DHT22;32042;50.916;2.926;2023-01-20T11:09:42;5.70;99.90
46319;DHT22;32042;50.916;2.926;2023-01-20T11:12:16;5.70;99.90
46319;DHT22;32042;50.916;2.926;2023-01-20T11:14:43;5.80;99.90
46319;DHT22;32042;50.916;2.926;2023-01-20T11:17:14;5.80;99.90
46319;DHT22;32042;50.916;2.926;2023-01-20T11:22:29;6.00;99.90
46319;DHT22;32042;50.916;2.926;2023-01-20T11:24:57;6.00;99.90
46319;DHT22;32042;50.916;2.926;2023-01-20T11:27:44;6.20;99.90
46319;DHT22;32042;50.916;2.926;2023-01-20T11:33:26;6.30;99.90
46319;DHT22;32042;50.916;2.926;2023-01-20T11:36:08;6.30;99.90
46319;DHT22;32042;50.916;2.926;2023-01-20T11:38:47;6.30;99.90
46319;DHT22;32042;50.916;2.926;2023-01-20T11:41:21;6.40;99.90
46319;DHT22;32042;50.916;2.926;2023-01-20T11:43:49;6.40;99.90
46319;DHT22;32042;50.916;2.926;2023-01-20T11:48:41;6.40;99.90
46319;DHT22;32042;50.916;2.926;2023-01-20T11:51:24;6.30;99.90
46319;DHT22;32042;50.916;2.926;2023-01-20T11:53:50;6.30;99.90
46319;DHT22;32042;50.916;2.926;2023-01-20T11:56:20;6.30;99.90
46319;DHT22;32042;50.916;2.926;2023-01-20T11:58:52;6.20;99.90
46319;DHT22;32042;50.916;2.926;2023-01-20T12:01:24;6.20;99.90
46319;DHT22;32042;50.916;2.926;2023-01-20T12:04:22;6.20;99.90
46319;DHT22;32042;50.916;2.926;2023-01-20T12:06:59;6.20;99.90
46319;DHT22;32042;50.916;2.926;2023-01-20T12:09:29;6.30;99.90
46319;DHT22;32042;50.916;2.926;2023-01-20T12:12:05;6.20;99.90
46319;DHT22;32042;50.916;2.926;2023-01-20T12:14:47;6.10;99.90
46319;DHT22;32042;50.916;2.926;2023-01-20T12:20:00;6.00;99.90
46319;DHT22;32042;50.916;2.926;2023-01-20T12:22:42;6.00;99.90
46319;DHT22;32042;50.916;2.926;2023-01-20T12:25:21;6.00;99.90
46319;DHT22;32042;50.916;2.926;2023-01-20T12:30:57;5.90;99.90
46319;DHT22;32042;50.916;2.926;2023-01-20T12:56:31;6.20;99.90
46319;DHT22;32042;50.916;2.926;2023-01-20T13:04:38;6.40;99.90
46319;DHT22;32042;50.916;2.926;2023-01-20T13:13:19;6.30;99.90
46319;DHT22;32042;50.916;2.926;2023-01-20T13:16:01;6.20;99.90
46319;DHT22;32042;50.916;2.926;2023-01-20T13:21:19;6.00;99.90
46319;DHT22;32042;50.916;2.926;2023-01-20T13:23:47;6.00;99.90
46319;DHT22;32042;50.916;2.926;2023-01-20T13:26:13;5.90;99.90
46319;DHT22;32042;50.916;2.926;2023-01-20T13:28:53;5.90;99.90
46319;DHT22;32042;50.916;2.926;2023-01-20T13:42:28;6.00;99.90
46319;DHT22;32042;50.916;2.926;2023-01-20T13:45:27;5.90;99.90
46319;DHT22;32042;50.916;2.926;2023-01-20T13:50:33;5.90;99.90
46319;DHT22;32042;50.916;2.926;2023-01-20T13:58:28;6.00;99.90
46319;DHT22;32042;50.916;2.926;2023-01-20T14:00:56;6.00;99.90
46319;DHT22;32042;50.916;2.926;2023-01-20T14:03:25;6.00;99.90
46319;DHT22;32042;50.916;2.926;2023-01-20T14:05:59;6.00;99.90
46319;DHT22;32042;50.916;2.926;2023-01-20T14:08:35;6.00;99.90
46319;DHT22;32042;50.916;2.926;2023-01-20T14:11:23;6.00;99.90
46319;DHT22;32042;50.916;2.926;2023-01-20T14:14:00;5.90;99.90
46319;DHT22;32042;50.916;2.926;2023-01-20T14:16:35;5.90;99.90
46319;DHT22;32042;50.916;2.926;2023-01-20T14:19:18;5.90;99.90
46319;DHT22;32042;50.916;2.926;2023-01-20T14:21:51;5.90;99.90
46319;DHT22;32042;50.916;2.926;2023-01-20T14:27:47;6.00;99.90
46319;DHT22;32042;50.916;2.926;2023-01-20T14:29:58;6.00;99.90
46319;DHT22;32042;50.916;2.926;2023-01-20T14:32:37;5.90;99.90
46319;DHT22;32042;50.916;2.926;2023-01-20T14:35:27;5.80;99.90
46319;DHT22;32042;50.916;2.926;2023-01-20T14:37:54;5.80;99.90
46319;DHT22;32042;50.916;2.926;2023-01-20T14:40:24;5.80;99.90
46319;DHT22;32042;50.916;2.926;2023-01-20T14:43:15;5.70;99.90
46319;DHT22;32042;50.916;2.926;2023-01-20T14:45:45;5.70;99.90
46319;DHT22;32042;50.916;2.926;2023-01-20T14:48:11;5.70;99.90
46319;DHT22;32042;50.916;2.926;2023-01-20T14:50:38;5.70;99.90
46319;DHT22;32042;50.916;2.926;2023-01-20T14:53:04;5.70;99.90
46319;DHT22;32042;50.916;2.926;2023-01-20T14:55:34;5.70;99.90
46319;DHT22;32042;50.916;2.926;2023-01-20T14:58:07;5.80;99.90
46319;DHT22;32042;50.916;2.926;2023-01-20T15:00:34;5.70;99.90
46319;DHT22;32042;50.916;2.926;2023-01-20T15:03:04;5.70;99.90
46319;DHT22;32042;50.916;2.926;2023-01-20T15:05:33;5.70;99.90
46319;DHT22;32042;50.916;2.926;2023-01-20T15:08:19;5.70;99.90
46319;DHT22;32042;50.916;2.926;2023-01-20T15:11:32;5.70;99.90
46319;DHT22;32042;50.916;2.926;2023-01-20T15:13:34;5.70;99.90
46319;DHT22;32042;50.916;2.926;2023-01-20T15:18:38;5.70;99.90
46319;DHT22;32042;50.916;2.926;2023-01-20T15:21:27;5.80;99.90
46319;DHT22;32042;50.916;2.926;2023-01-20T15:23:53;5.80;99.90
46319;DHT22;32042;50.916;2.926;2023-01-20T15:26:27;5.70;99.90
46319;DHT22;32042;50.916;2.926;2023-01-20T15:28:54;5.70;99.90
46319;DHT22;32042;50.916;2.926;2023-01-20T15:31:20;5.80;99.90
46319;DHT22;32042;50.916;2.926;2023-01-20T15:33:46;5.70;99.90
46319;DHT22;32042;50.916;2.926;2023-01-20T15:38:46;5.70;99.90
46319;DHT22;32042;50.916;2.926;2023-01-20T15:41:12;5.60;99.90
46319;DHT22;32042;50.916;2.926;2023-01-20T15:43:39;5.60;99.90
46319;DHT22;32042;50.916;2.926;2023-01-20T15:46:12;5.60;99.90
46319;DHT22;32042;50.916;2.926;2023-01-20T15:48:38;5.60;99.90
46319;DHT22;32042;50.916;2.926;2023-01-20T15:51:05;5.60;99.90
46319;DHT22;32042;50.916;2.926;2023-01-20T15:53:34;5.70;99.90
46319;DHT22;32042;50.916;2.926;2023-01-20T15:56:00;5.60;99.90
46319;DHT22;32042;50.916;2.926;2023-01-20T15:58:30;5.60;99.90
46319;DHT22;32042;50.916;2.926;2023-01-20T16:00:58;5.60;99.90
46319;DHT22;32042;50.916;2.926;2023-01-20T16:03:24;5.60;99.90
46319;DHT22;32042;50.916;2.926;2023-01-20T16:05:52;5.60;99.90
46319;DHT22;32042;50.916;2.926;2023-01-20T16:08:20;5.50;99.90
46319;DHT22;32042;50.916;2.926;2023-01-20T16:10:46;5.40;99.90
46319;DHT22;32042;50.916;2.926;2023-01-20T16:13:13;5.30;99.90
46319;DHT22;32042;50.916;2.926;2023-01-20T16:15:40;5.30;99.90
46319;DHT22;32042;50.916;2.926;2023-01-20T16:18:11;5.30;99.90
46319;DHT22;32042;50.916;2.926;2023-01-20T16:20:39;5.20;99.90
46319;DHT22;32042;50.916;2.926;2023-01-20T16:23:05;5.20;99.90
46319;DHT22;32042;50.916;2.926;2023-01-20T16:25:31;5.20;99.90
46319;DHT22;32042;50.916;2.926;2023-01-20T16:27:57;5.20;99.90
46319;DHT22;32042;50.916;2.926;2023-01-20T16:30:24;5.20;99.90
46319;DHT22;32042;50.916;2.926;2023-01-20T16:32:50;5.20;99.90
46319;DHT22;32042;50.916;2.926;2023-01-20T16:35:17;5.30;99.90
46319;DHT22;32042;50.916;2.926;2023-01-20T16:37:44;5.30;99.90
46319;DHT22;32042;50.916;2.926;2023-01-20T16:40:18;5.30;99.90
46319;DHT22;32042;50.916;2.926;2023-01-20T16:42:44;5.30;99.90
46319;DHT22;32042;50.916;2.926;2023-01-20T16:45:28;5.30;99.90
46319;DHT22;32042;50.916;2.926;2023-01-20T16:47:54;5.30;99.90
46319;DHT22;32042;50.916;2.926;2023-01-20T16:50:21;5.30;99.90
46319;DHT22;32042;50.916;2.926;2023-01-20T16:52:47;5.30;99.90
46319;DHT22;32042;50.916;2.926;2023-01-20T16:55:13;5.30;99.90
46319;DHT22;32042;50.916;2.926;2023-01-20T16:57:39;5.30;99.90
46319;DHT22;32042;50.916;2.926;2023-01-20T17:00:05;5.30;99.90
46319;DHT22;32042;50.916;2.926;2023-01-20T17:02:31;5.30;99.90
46319;DHT22;32042;50.916;2.926;2023-01-20T17:04:59;5.30;99.90
46319;DHT22;32042;50.916;2.926;2023-01-20T17:07:25;5.30;99.90
46319;DHT22;32042;50.916;2.926;2023-01-20T17:09:51;5.20;99.90
46319;DHT22;32042;50.916;2.926;2023-01-20T17:12:17;5.20;99.90
46319;DHT22;32042;50.916;2.926;2023-01-20T17:14:43;5.10;99.90
46319;DHT22;32042;50.916;2.926;2023-01-20T17:17:08;5.10;99.90
46319;DHT22;32042;50.916;2.926;2023-01-20T17:19:34;5.20;99.90
46319;DHT22;32042;50.916;2.926;2023-01-20T17:22:00;5.20;99.90
46319;DHT22;32042;50.916;2.926;2023-01-20T17:24:25;5.20;99.90
46319;DHT22;32042;50.916;2.926;2023-01-20T17:26:51;5.20;99.90
46319;DHT22;32042;50.916;2.926;2023-01-20T17:29:17;5.10;99.90
46319;DHT22;32042;50.916;2.926;2023-01-20T17:31:46;4.90;99.90
46319;DHT22;32042;50.916;2.926;2023-01-20T17:34:12;4.80;99.90
46319;DHT22;32042;50.916;2.926;2023-01-20T17:36:37;4.80;99.90
46319;DHT22;32042;50.916;2.926;2023-01-20T17:39:04;4.70;99.90
46319;DHT22;32042;50.916;2.926;2023-01-20T17:41:31;4.70;99.90
46319;DHT22;32042;50.916;2.926;2023-01-20T17:43:56;4.70;99.90
46319;DHT22;32042;50.916;2.926;2023-01-20T17:46:23;4.80;99.90
46319;DHT22;32042;50.916;2.926;2023-01-20T17:48:50;4.70;99.90
46319;DHT22;32042;50.916;2.926;2023-01-20T17:51:18;4.70;99.90
46319;DHT22;32042;50.916;2.926;2023-01-20T17:53:44;4.70;99.90
46319;DHT22;32042;50.916;2.926;2023-01-20T17:56:11;4.70;99.90
46319;DHT22;32042;50.916;2.926;2023-01-20T17:58:38;4.70;99.90
46319;DHT22;32042;50.916;2.926;2023-01-20T18:01:16;4.70;99.90
46319;DHT22;32042;50.916;2.926;2023-01-20T18:03:43;4.60;99.90
46319;DHT22;32042;50.916;2.926;2023-01-20T18:06:10;4.70;99.90
46319;DHT22;32042;50.916;2.926;2023-01-20T18:08:36;4.60;99.90
46319;DHT22;32042;50.916;2.926;2023-01-20T18:11:10;4.60;99.90
46319;DHT22;32042;50.916;2.926;2023-01-20T18:13:36;4.60;99.90
46319;DHT22;32042;50.916;2.926;2023-01-20T18:16:10;4.60;99.90